Карточка аэропорта URMM

Внимание!
Информация на этой странице в стадии наполнения.
Если вы не увидели какой-то информации, или заметили неточность - пожалуйста сообщите нам!
Спасибо!
Команда RU-STAFF
Название аэропортаМинеральные Воды
Название аэропорта (англ.)Mineralnyye Vody
Превышение1047 ft. (319.1 m.)
Координаты44°13.608', 43°4.9799999999999'
Высота перехода7000 ft
Эшелон переходаFL80 (QNH >= 1013); FL90 (QNH 977-1012); FL100 (QNH < 977)
Коды ответчика1050-1057
Зона ОрВДРостов-на-Дону РПИ (URRV)
Данные METARURMM 302100Z 10010MPS 9999 -DZ OVC005 01/M00 Q1030 R12/290150 NOSIG RMK MT OBSC OBST OBSC QFE744/0992
Проноз погоды (TAF)URMM 302000Z 3021/0121 10009G15MPS 9999 OVC006 TX02/0111Z TNM00/0102Z TEMPO 3021/0109 6000 -FZDZ OVC004 TEMPO 0112/0121 OVC011
NOTAMshow/hide NOTAM
AWOS   TABLE

Информация о ВПП

ВПП Длина ВПП (м.) Покрытие Курс ВПП Частота ILS
123900Бетон115111.7
303900Бетон295109.3

Диспетчерские позиции

Позывной Наименование органа УВД Частота
URMM_R_APPМинводы-Круг120.7
URMM_APPМинводы-Подход119.3
URMM_GNDМинводы-Руление121.9
URMM_TWRМинводы-Старт128.0



Спутниковое изображение